sensor_id;sensor_type;location;lat;lon;timestamp;temperature;humidity
52481;DHT22;38393;52.404;13.532;2023-03-14T00:00:35;11.80;89.30
52481;DHT22;38393;52.404;13.532;2023-03-14T00:03:00;11.80;89.40
52481;DHT22;38393;52.404;13.532;2023-03-14T00:05:26;11.70;89.50
52481;DHT22;38393;52.404;13.532;2023-03-14T00:07:51;11.70;90.00
52481;DHT22;38393;52.404;13.532;2023-03-14T00:10:17;11.70;89.90
52481;DHT22;38393;52.404;13.532;2023-03-14T00:12:43;11.80;89.80
52481;DHT22;38393;52.404;13.532;2023-03-14T00:15:10;11.70;90.10
52481;DHT22;38393;52.404;13.532;2023-03-14T00:17:36;11.80;90.20
52481;DHT22;38393;52.404;13.532;2023-03-14T00:20:04;11.70;90.30
52481;DHT22;38393;52.404;13.532;2023-03-14T00:22:34;11.60;90.50
52481;DHT22;38393;52.404;13.532;2023-03-14T00:25:00;11.60;90.60
52481;DHT22;38393;52.404;13.532;2023-03-14T00:27:26;11.50;90.80
52481;DHT22;38393;52.404;13.532;2023-03-14T00:29:51;11.50;91.00
52481;DHT22;38393;52.404;13.532;2023-03-14T00:32:17;11.50;91.20
52481;DHT22;38393;52.404;13.532;2023-03-14T00:34:42;11.30;91.40
52481;DHT22;38393;52.404;13.532;2023-03-14T00:37:08;11.30;91.60
52481;DHT22;38393;52.404;13.532;2023-03-14T00:39:33;11.20;91.80
52481;DHT22;38393;52.404;13.532;2023-03-14T00:41:59;11.30;91.80
52481;DHT22;38393;52.404;13.532;2023-03-14T00:44:24;11.20;91.90
52481;DHT22;38393;52.404;13.532;2023-03-14T00:46:50;11.30;92.00
52481;DHT22;38393;52.404;13.532;2023-03-14T00:49:15;11.20;92.10
52481;DHT22;38393;52.404;13.532;2023-03-14T00:51:41;11.20;92.20
52481;DHT22;38393;52.404;13.532;2023-03-14T00:54:07;11.20;92.10
52481;DHT22;38393;52.404;13.532;2023-03-14T00:56:32;11.20;92.20
52481;DHT22;38393;52.404;13.532;2023-03-14T00:58:58;11.10;92.30
52481;DHT22;38393;52.404;13.532;2023-03-14T01:01:24;11.10;92.70
52481;DHT22;38393;52.404;13.532;2023-03-14T01:03:54;11.20;92.40
52481;DHT22;38393;52.404;13.532;2023-03-14T01:06:22;11.10;92.60
52481;DHT22;38393;52.404;13.532;2023-03-14T01:08:48;10.90;92.70
52481;DHT22;38393;52.404;13.532;2023-03-14T01:11:17;11.00;92.70
52481;DHT22;38393;52.404;13.532;2023-03-14T01:13:43;11.00;92.80
52481;DHT22;38393;52.404;13.532;2023-03-14T01:16:10;11.00;92.70
52481;DHT22;38393;52.404;13.532;2023-03-14T01:18:36;11.00;92.90
52481;DHT22;38393;52.404;13.532;2023-03-14T01:21:04;11.00;93.00
52481;DHT22;38393;52.404;13.532;2023-03-14T01:23:34;11.10;92.80
52481;DHT22;38393;52.404;13.532;2023-03-14T01:25:59;11.20;92.70
52481;DHT22;38393;52.404;13.532;2023-03-14T01:28:25;11.30;92.60
52481;DHT22;38393;52.404;13.532;2023-03-14T01:30:50;11.30;92.40
52481;DHT22;38393;52.404;13.532;2023-03-14T01:33:16;11.30;92.20
52481;DHT22;38393;52.404;13.532;2023-03-14T01:35:41;11.40;92.20
52481;DHT22;38393;52.404;13.532;2023-03-14T01:38:16;11.40;92.20
52481;DHT22;38393;52.404;13.532;2023-03-14T01:40:43;11.60;92.20
52481;DHT22;38393;52.404;13.532;2023-03-14T01:43:17;11.50;92.10
52481;DHT22;38393;52.404;13.532;2023-03-14T01:51:34;11.50;91.90
52481;DHT22;38393;52.404;13.532;2023-03-14T01:54:26;11.60;91.90
52481;DHT22;38393;52.404;13.532;2023-03-14T01:56:58;11.40;92.00
52481;DHT22;38393;52.404;13.532;2023-03-14T01:59:25;11.40;92.00
52481;DHT22;38393;52.404;13.532;2023-03-14T02:01:51;11.40;92.00
52481;DHT22;38393;52.404;13.532;2023-03-14T02:04:19;11.40;92.10
52481;DHT22;38393;52.404;13.532;2023-03-14T02:07:00;11.30;92.20
52481;DHT22;38393;52.404;13.532;2023-03-14T02:09:27;11.30;92.20
52481;DHT22;38393;52.404;13.532;2023-03-14T02:11:52;11.30;92.30
52481;DHT22;38393;52.404;13.532;2023-03-14T02:14:35;11.10;92.20
52481;DHT22;38393;52.404;13.532;2023-03-14T02:17:03;11.20;92.40
52481;DHT22;38393;52.404;13.532;2023-03-14T02:22:23;11.00;92.70
52481;DHT22;38393;52.404;13.532;2023-03-14T02:25:08;11.00;92.70
52481;DHT22;38393;52.404;13.532;2023-03-14T02:27:34;10.90;92.70
52481;DHT22;38393;52.404;13.532;2023-03-14T02:30:25;11.00;92.80
52481;DHT22;38393;52.404;13.532;2023-03-14T02:32:59;11.10;92.60
52481;DHT22;38393;52.404;13.532;2023-03-14T02:35:37;11.00;93.10
52481;DHT22;38393;52.404;13.532;2023-03-14T02:40:52;11.10;92.70
52481;DHT22;38393;52.404;13.532;2023-03-14T02:43:17;11.10;92.70
52481;DHT22;38393;52.404;13.532;2023-03-14T02:45:44;11.00;92.70
52481;DHT22;38393;52.404;13.532;2023-03-14T02:50:41;11.10;92.60
52481;DHT22;38393;52.404;13.532;2023-03-14T02:53:07;11.10;92.50
52481;DHT22;38393;52.404;13.532;2023-03-14T02:55:33;11.10;92.50
52481;DHT22;38393;52.404;13.532;2023-03-14T02:57:58;11.30;92.40
52481;DHT22;38393;52.404;13.532;2023-03-14T03:00:24;11.10;92.40
52481;DHT22;38393;52.404;13.532;2023-03-14T03:02:49;11.20;92.30
52481;DHT22;38393;52.404;13.532;2023-03-14T03:05:15;11.20;92.20
52481;DHT22;38393;52.404;13.532;2023-03-14T03:07:40;11.10;92.10
52481;DHT22;38393;52.404;13.532;2023-03-14T03:10:06;11.20;92.00
52481;DHT22;38393;52.404;13.532;2023-03-14T03:12:32;11.10;92.00
52481;DHT22;38393;52.404;13.532;2023-03-14T03:14:57;11.10;92.10
52481;DHT22;38393;52.404;13.532;2023-03-14T03:17:22;11.10;92.10
52481;DHT22;38393;52.404;13.532;2023-03-14T03:19:48;11.10;92.00
52481;DHT22;38393;52.404;13.532;2023-03-14T03:22:14;11.00;92.10
52481;DHT22;38393;52.404;13.532;2023-03-14T03:24:39;11.10;92.10
52481;DHT22;38393;52.404;13.532;2023-03-14T03:27:05;11.10;92.10
52481;DHT22;38393;52.404;13.532;2023-03-14T03:29:30;11.10;92.00
52481;DHT22;38393;52.404;13.532;2023-03-14T03:31:56;11.10;92.20
52481;DHT22;38393;52.404;13.532;2023-03-14T03:34:21;11.20;91.70
52481;DHT22;38393;52.404;13.532;2023-03-14T03:36:47;11.10;91.80
52481;DHT22;38393;52.404;13.532;2023-03-14T03:39:12;11.10;91.80
52481;DHT22;38393;52.404;13.532;2023-03-14T03:41:38;11.10;91.80
52481;DHT22;38393;52.404;13.532;2023-03-14T03:44:03;11.20;91.60
52481;DHT22;38393;52.404;13.532;2023-03-14T03:46:29;11.20;91.40
52481;DHT22;38393;52.404;13.532;2023-03-14T03:48:55;11.20;91.30
52481;DHT22;38393;52.404;13.532;2023-03-14T03:51:21;11.30;91.10
52481;DHT22;38393;52.404;13.532;2023-03-14T03:53:47;11.30;91.20
52481;DHT22;38393;52.404;13.532;2023-03-14T03:56:12;11.30;91.00
52481;DHT22;38393;52.404;13.532;2023-03-14T03:58:38;11.30;90.90
52481;DHT22;38393;52.404;13.532;2023-03-14T04:01:05;11.20;91.40
52481;DHT22;38393;52.404;13.532;2023-03-14T04:03:32;11.20;91.00
52481;DHT22;38393;52.404;13.532;2023-03-14T04:06:03;11.20;91.00
52481;DHT22;38393;52.404;13.532;2023-03-14T04:08:29;11.10;91.00
52481;DHT22;38393;52.404;13.532;2023-03-14T04:10:59;11.10;91.00
52481;DHT22;38393;52.404;13.532;2023-03-14T04:13:26;11.20;91.10
52481;DHT22;38393;52.404;13.532;2023-03-14T04:15:52;11.10;91.20
52481;DHT22;38393;52.404;13.532;2023-03-14T04:18:18;11.10;91.20
52481;DHT22;38393;52.404;13.532;2023-03-14T04:20:44;11.00;91.10
52481;DHT22;38393;52.404;13.532;2023-03-14T04:23:10;11.00;91.10
52481;DHT22;38393;52.404;13.532;2023-03-14T04:25:36;11.10;90.90
52481;DHT22;38393;52.404;13.532;2023-03-14T04:28:01;11.20;90.70
52481;DHT22;38393;52.404;13.532;2023-03-14T04:30:28;11.10;90.70
52481;DHT22;38393;52.404;13.532;2023-03-14T04:32:54;11.10;90.70
52481;DHT22;38393;52.404;13.532;2023-03-14T04:35:19;11.00;90.70
52481;DHT22;38393;52.404;13.532;2023-03-14T04:37:45;11.00;90.80
52481;DHT22;38393;52.404;13.532;2023-03-14T04:40:14;11.00;90.70
52481;DHT22;38393;52.404;13.532;2023-03-14T04:42:40;11.00;90.60
52481;DHT22;38393;52.404;13.532;2023-03-14T04:45:06;11.00;90.70
52481;DHT22;38393;52.404;13.532;2023-03-14T04:47:32;11.00;90.60
52481;DHT22;38393;52.404;13.532;2023-03-14T04:49:57;11.00;90.40
52481;DHT22;38393;52.404;13.532;2023-03-14T04:52:22;10.80;90.70
52481;DHT22;38393;52.404;13.532;2023-03-14T04:54:48;10.90;90.70
52481;DHT22;38393;52.404;13.532;2023-03-14T04:57:13;10.80;90.80
52481;DHT22;38393;52.404;13.532;2023-03-14T04:59:39;10.70;90.70
52481;DHT22;38393;52.404;13.532;2023-03-14T05:02:04;10.80;90.70
52481;DHT22;38393;52.404;13.532;2023-03-14T05:04:30;10.70;90.80
52481;DHT22;38393;52.404;13.532;2023-03-14T05:06:58;10.70;90.70
52481;DHT22;38393;52.404;13.532;2023-03-14T05:09:23;10.70;90.60
52481;DHT22;38393;52.404;13.532;2023-03-14T05:11:49;10.70;90.70
52481;DHT22;38393;52.404;13.532;2023-03-14T05:14:14;10.80;90.40
52481;DHT22;38393;52.404;13.532;2023-03-14T05:16:40;10.80;90.20
52481;DHT22;38393;52.404;13.532;2023-03-14T05:19:05;10.80;90.10
52481;DHT22;38393;52.404;13.532;2023-03-14T05:21:31;10.90;89.70
52481;DHT22;38393;52.404;13.532;2023-03-14T05:23:56;10.90;89.60
52481;DHT22;38393;52.404;13.532;2023-03-14T05:26:22;10.80;90.00
52481;DHT22;38393;52.404;13.532;2023-03-14T05:28:47;10.80;88.50
52481;DHT22;38393;52.404;13.532;2023-03-14T05:31:13;10.80;88.90
52481;DHT22;38393;52.404;13.532;2023-03-14T05:33:39;10.90;88.70
52481;DHT22;38393;52.404;13.532;2023-03-14T05:36:05;10.90;88.70
52481;DHT22;38393;52.404;13.532;2023-03-14T05:38:30;10.80;88.90
52481;DHT22;38393;52.404;13.532;2023-03-14T05:40:56;10.80;89.00
52481;DHT22;38393;52.404;13.532;2023-03-14T05:43:21;10.80;88.50
52481;DHT22;38393;52.404;13.532;2023-03-14T05:45:47;10.80;88.30
52481;DHT22;38393;52.404;13.532;2023-03-14T05:48:12;10.80;87.70
52481;DHT22;38393;52.404;13.532;2023-03-14T05:50:38;10.80;87.80
52481;DHT22;38393;52.404;13.532;2023-03-14T05:53:03;10.90;87.40
52481;DHT22;38393;52.404;13.532;2023-03-14T05:55:29;10.90;86.80
52481;DHT22;38393;52.404;13.532;2023-03-14T05:57:54;11.00;86.80
52481;DHT22;38393;52.404;13.532;2023-03-14T06:00:21;11.00;86.10
52481;DHT22;38393;52.404;13.532;2023-03-14T06:02:46;11.00;86.40
52481;DHT22;38393;52.404;13.532;2023-03-14T06:05:12;11.00;86.40
52481;DHT22;38393;52.404;13.532;2023-03-14T06:07:37;11.00;85.90
52481;DHT22;38393;52.404;13.532;2023-03-14T06:10:03;11.10;85.50
52481;DHT22;38393;52.404;13.532;2023-03-14T06:12:29;11.10;85.10
52481;DHT22;38393;52.404;13.532;2023-03-14T06:14:54;11.00;85.20
52481;DHT22;38393;52.404;13.532;2023-03-14T06:17:20;11.00;85.30
52481;DHT22;38393;52.404;13.532;2023-03-14T06:19:45;11.10;85.20
52481;DHT22;38393;52.404;13.532;2023-03-14T06:22:11;11.00;84.90
52481;DHT22;38393;52.404;13.532;2023-03-14T06:24:36;11.10;85.10
52481;DHT22;38393;52.404;13.532;2023-03-14T06:27:02;11.10;84.80
52481;DHT22;38393;52.404;13.532;2023-03-14T06:29:29;11.30;84.40
52481;DHT22;38393;52.404;13.532;2023-03-14T06:31:54;11.20;84.00
52481;DHT22;38393;52.404;13.532;2023-03-14T06:34:20;11.20;84.00
52481;DHT22;38393;52.404;13.532;2023-03-14T06:36:45;11.30;83.10
52481;DHT22;38393;52.404;13.532;2023-03-14T06:39:11;11.40;82.90
52481;DHT22;38393;52.404;13.532;2023-03-14T06:41:36;11.50;82.20
52481;DHT22;38393;52.404;13.532;2023-03-14T06:44:02;11.50;82.60
52481;DHT22;38393;52.404;13.532;2023-03-14T06:46:27;11.40;82.70
52481;DHT22;38393;52.404;13.532;2023-03-14T06:48:53;11.40;82.30
52481;DHT22;38393;52.404;13.532;2023-03-14T06:51:18;11.40;82.80
52481;DHT22;38393;52.404;13.532;2023-03-14T06:53:44;11.60;81.70
52481;DHT22;38393;52.404;13.532;2023-03-14T06:56:10;11.50;82.00
52481;DHT22;38393;52.404;13.532;2023-03-14T06:58:35;11.50;81.60
52481;DHT22;38393;52.404;13.532;2023-03-14T07:01:01;11.60;81.60
52481;DHT22;38393;52.404;13.532;2023-03-14T07:03:26;11.60;81.40
52481;DHT22;38393;52.404;13.532;2023-03-14T07:05:52;11.70;81.00
52481;DHT22;38393;52.404;13.532;2023-03-14T07:08:18;11.70;81.60
52481;DHT22;38393;52.404;13.532;2023-03-14T07:10:43;11.70;81.00
52481;DHT22;38393;52.404;13.532;2023-03-14T07:13:09;11.80;80.90
52481;DHT22;38393;52.404;13.532;2023-03-14T07:15:34;11.70;80.60
52481;DHT22;38393;52.404;13.532;2023-03-14T07:18:00;11.80;81.10
52481;DHT22;38393;52.404;13.532;2023-03-14T07:20:26;11.80;81.50
52481;DHT22;38393;52.404;13.532;2023-03-14T07:22:52;11.70;81.00
52481;DHT22;38393;52.404;13.532;2023-03-14T07:25:18;11.70;81.00
52481;DHT22;38393;52.404;13.532;2023-03-14T07:27:44;11.70;80.50
52481;DHT22;38393;52.404;13.532;2023-03-14T07:30:11;11.80;80.50
52481;DHT22;38393;52.404;13.532;2023-03-14T07:32:36;11.80;79.90
52481;DHT22;38393;52.404;13.532;2023-03-14T07:35:02;11.90;80.20
52481;DHT22;38393;52.404;13.532;2023-03-14T07:37:28;11.90;79.90
52481;DHT22;38393;52.404;13.532;2023-03-14T07:39:54;11.90;79.70
52481;DHT22;38393;52.404;13.532;2023-03-14T07:42:19;11.90;79.40
52481;DHT22;38393;52.404;13.532;2023-03-14T07:44:44;11.80;80.20
52481;DHT22;38393;52.404;13.532;2023-03-14T07:47:10;11.80;79.90
52481;DHT22;38393;52.404;13.532;2023-03-14T07:49:35;11.80;80.20
52481;DHT22;38393;52.404;13.532;2023-03-14T07:52:01;11.80;80.10
52481;DHT22;38393;52.404;13.532;2023-03-14T07:54:27;11.80;80.20
52481;DHT22;38393;52.404;13.532;2023-03-14T07:56:52;11.80;80.50
52481;DHT22;38393;52.404;13.532;2023-03-14T07:59:18;11.80;80.20
52481;DHT22;38393;52.404;13.532;2023-03-14T08:01:44;11.70;80.20
52481;DHT22;38393;52.404;13.532;2023-03-14T08:04:10;11.90;80.20
52481;DHT22;38393;52.404;13.532;2023-03-14T08:06:36;12.00;79.80
52481;DHT22;38393;52.404;13.532;2023-03-14T08:09:02;12.10;79.10
52481;DHT22;38393;52.404;13.532;2023-03-14T08:11:28;12.30;78.10
52481;DHT22;38393;52.404;13.532;2023-03-14T08:13:53;12.30;77.50
52481;DHT22;38393;52.404;13.532;2023-03-14T08:16:19;12.50;77.00
52481;DHT22;38393;52.404;13.532;2023-03-14T08:18:45;12.50;77.10
52481;DHT22;38393;52.404;13.532;2023-03-14T08:21:13;12.70;76.70
52481;DHT22;38393;52.404;13.532;2023-03-14T08:23:39;12.60;77.30
52481;DHT22;38393;52.404;13.532;2023-03-14T08:26:04;12.50;76.80
52481;DHT22;38393;52.404;13.532;2023-03-14T08:28:30;12.60;76.40
52481;DHT22;38393;52.404;13.532;2023-03-14T08:30:58;12.60;76.20
52481;DHT22;38393;52.404;13.532;2023-03-14T08:33:25;12.80;76.50
52481;DHT22;38393;52.404;13.532;2023-03-14T08:35:58;12.80;75.40
52481;DHT22;38393;52.404;13.532;2023-03-14T08:38:25;12.80;75.50
52481;DHT22;38393;52.404;13.532;2023-03-14T08:40:59;12.60;75.80
52481;DHT22;38393;52.404;13.532;2023-03-14T08:43:26;12.60;76.20
52481;DHT22;38393;52.404;13.532;2023-03-14T08:45:51;12.60;76.80
52481;DHT22;38393;52.404;13.532;2023-03-14T08:48:17;12.60;76.10
52481;DHT22;38393;52.404;13.532;2023-03-14T08:50:42;12.50;76.00
52481;DHT22;38393;52.404;13.532;2023-03-14T08:53:08;12.60;76.30
52481;DHT22;38393;52.404;13.532;2023-03-14T08:55:35;12.90;75.40
52481;DHT22;38393;52.404;13.532;2023-03-14T08:58:00;12.80;75.10
52481;DHT22;38393;52.404;13.532;2023-03-14T09:00:26;12.80;75.40
52481;DHT22;38393;52.404;13.532;2023-03-14T09:02:52;12.80;74.80
52481;DHT22;38393;52.404;13.532;2023-03-14T09:05:17;12.80;74.70
52481;DHT22;38393;52.404;13.532;2023-03-14T09:07:43;12.80;75.10
52481;DHT22;38393;52.404;13.532;2023-03-14T09:10:09;12.70;74.80
52481;DHT22;38393;52.404;13.532;2023-03-14T09:12:35;12.70;74.60
52481;DHT22;38393;52.404;13.532;2023-03-14T09:15:00;12.80;74.90
52481;DHT22;38393;52.404;13.532;2023-03-14T09:17:26;13.00;74.00
52481;DHT22;38393;52.404;13.532;2023-03-14T09:19:51;13.10;73.80
52481;DHT22;38393;52.404;13.532;2023-03-14T09:22:17;13.10;73.50
52481;DHT22;38393;52.404;13.532;2023-03-14T09:24:42;13.00;74.40
52481;DHT22;38393;52.404;13.532;2023-03-14T09:27:09;13.10;74.30
52481;DHT22;38393;52.404;13.532;2023-03-14T09:29:34;13.10;74.50
52481;DHT22;38393;52.404;13.532;2023-03-14T09:32:00;13.40;73.40
52481;DHT22;38393;52.404;13.532;2023-03-14T09:34:26;13.50;72.50
52481;DHT22;38393;52.404;13.532;2023-03-14T09:36:52;13.60;71.30
52481;DHT22;38393;52.404;13.532;2023-03-14T09:39:17;13.80;70.30
52481;DHT22;38393;52.404;13.532;2023-03-14T09:41:45;13.80;70.10
52481;DHT22;38393;52.404;13.532;2023-03-14T09:44:36;13.80;69.00
52481;DHT22;38393;52.404;13.532;2023-03-14T09:47:09;14.20;68.50
52481;DHT22;38393;52.404;13.532;2023-03-14T09:49:39;14.60;68.10
52481;DHT22;38393;52.404;13.532;2023-03-14T09:52:17;14.40;65.50
52481;DHT22;38393;52.404;13.532;2023-03-14T09:54:47;14.60;65.90
52481;DHT22;38393;52.404;13.532;2023-03-14T09:57:20;14.80;65.30
52481;DHT22;38393;52.404;13.532;2023-03-14T09:59:48;14.90;62.60
52481;DHT22;38393;52.404;13.532;2023-03-14T10:04:47;14.80;63.10
52481;DHT22;38393;52.404;13.532;2023-03-14T10:07:15;14.60;62.00
52481;DHT22;38393;52.404;13.532;2023-03-14T10:09:43;14.40;63.80
52481;DHT22;38393;52.404;13.532;2023-03-14T10:12:09;14.30;64.90
52481;DHT22;38393;52.404;13.532;2023-03-14T10:14:38;14.20;62.20
52481;DHT22;38393;52.404;13.532;2023-03-14T10:17:12;14.10;64.50
52481;DHT22;38393;52.404;13.532;2023-03-14T10:19:55;13.90;64.70
52481;DHT22;38393;52.404;13.532;2023-03-14T10:22:22;13.90;64.50
52481;DHT22;38393;52.404;13.532;2023-03-14T10:24:53;13.80;64.30
52481;DHT22;38393;52.404;13.532;2023-03-14T10:27:29;13.80;63.40
52481;DHT22;38393;52.404;13.532;2023-03-14T10:29:57;13.80;62.90
52481;DHT22;38393;52.404;13.532;2023-03-14T10:32:29;13.80;63.50
52481;DHT22;38393;52.404;13.532;2023-03-14T10:35:30;13.80;63.50
52481;DHT22;38393;52.404;13.532;2023-03-14T10:38:00;13.80;63.40
52481;DHT22;38393;52.404;13.532;2023-03-14T10:40:32;13.70;63.90
52481;DHT22;38393;52.404;13.532;2023-03-14T10:42:59;13.80;63.40
52481;DHT22;38393;52.404;13.532;2023-03-14T10:45:31;13.80;63.60
52481;DHT22;38393;52.404;13.532;2023-03-14T10:48:05;13.80;63.60
52481;DHT22;38393;52.404;13.532;2023-03-14T10:50:31;13.80;63.90
52481;DHT22;38393;52.404;13.532;2023-03-14T10:53:00;13.90;64.40
52481;DHT22;38393;52.404;13.532;2023-03-14T10:55:40;13.80;64.40
52481;DHT22;38393;52.404;13.532;2023-03-14T10:58:20;13.80;65.40
52481;DHT22;38393;52.404;13.532;2023-03-14T11:03:43;13.70;65.90
52481;DHT22;38393;52.404;13.532;2023-03-14T11:06:15;13.60;66.10
52481;DHT22;38393;52.404;13.532;2023-03-14T11:11:32;13.60;66.40
52481;DHT22;38393;52.404;13.532;2023-03-14T11:16:59;13.60;67.00
52481;DHT22;38393;52.404;13.532;2023-03-14T11:22:19;13.60;68.20
52481;DHT22;38393;52.404;13.532;2023-03-14T11:27:42;13.50;68.10
52481;DHT22;38393;52.404;13.532;2023-03-14T11:30:23;13.60;67.70
52481;DHT22;38393;52.404;13.532;2023-03-14T11:33:03;13.60;68.10
52481;DHT22;38393;52.404;13.532;2023-03-14T11:35:34;13.60;68.60
52481;DHT22;38393;52.404;13.532;2023-03-14T11:38:24;13.60;67.80
52481;DHT22;38393;52.404;13.532;2023-03-14T11:40:54;13.70;67.40
52481;DHT22;38393;52.404;13.532;2023-03-14T11:43:42;13.70;67.20
52481;DHT22;38393;52.404;13.532;2023-03-14T11:46:20;13.80;67.60
52481;DHT22;38393;52.404;13.532;2023-03-14T11:51:29;13.80;67.60
52481;DHT22;38393;52.404;13.532;2023-03-14T11:56:48;13.70;69.30
52481;DHT22;38393;52.404;13.532;2023-03-14T11:59:19;13.50;71.80
52481;DHT22;38393;52.404;13.532;2023-03-14T12:02:05;13.20;73.10
52481;DHT22;38393;52.404;13.532;2023-03-14T12:05:01;13.10;72.80
52481;DHT22;38393;52.404;13.532;2023-03-14T12:07:39;13.10;74.80
52481;DHT22;38393;52.404;13.532;2023-03-14T12:10:08;13.00;78.20
52481;DHT22;38393;52.404;13.532;2023-03-14T12:12:34;12.90;78.70
52481;DHT22;38393;52.404;13.532;2023-03-14T12:15:02;12.80;78.40
52481;DHT22;38393;52.404;13.532;2023-03-14T12:17:39;12.90;76.30
52481;DHT22;38393;52.404;13.532;2023-03-14T12:20:23;12.80;76.50
52481;DHT22;38393;52.404;13.532;2023-03-14T12:22:54;12.90;75.40
52481;DHT22;38393;52.404;13.532;2023-03-14T12:25:25;13.00;78.50
52481;DHT22;38393;52.404;13.532;2023-03-14T12:30:26;13.20;77.00
52481;DHT22;38393;52.404;13.532;2023-03-14T12:35:41;13.50;75.90
52481;DHT22;38393;52.404;13.532;2023-03-14T12:38:46;13.60;74.10
52481;DHT22;38393;52.404;13.532;2023-03-14T12:41:27;13.60;72.40
52481;DHT22;38393;52.404;13.532;2023-03-14T12:43:54;13.60;74.40
52481;DHT22;38393;52.404;13.532;2023-03-14T12:46:23;13.70;73.40
52481;DHT22;38393;52.404;13.532;2023-03-14T12:48:56;13.90;72.80
52481;DHT22;38393;52.404;13.532;2023-03-14T12:51:36;14.00;71.00
52481;DHT22;38393;52.404;13.532;2023-03-14T12:54:27;14.00;70.60
52481;DHT22;38393;52.404;13.532;2023-03-14T12:57:03;14.10;70.00
52481;DHT22;38393;52.404;13.532;2023-03-14T12:59:46;14.30;69.70
52481;DHT22;38393;52.404;13.532;2023-03-14T13:02:28;14.40;69.70
52481;DHT22;38393;52.404;13.532;2023-03-14T13:12:57;14.20;67.50
52481;DHT22;38393;52.404;13.532;2023-03-14T13:15:31;14.20;67.20
52481;DHT22;38393;52.404;13.532;2023-03-14T13:21:03;14.50;65.40
52481;DHT22;38393;52.404;13.532;2023-03-14T13:23:32;14.40;65.40
52481;DHT22;38393;52.404;13.532;2023-03-14T13:26:00;14.50;65.40
52481;DHT22;38393;52.404;13.532;2023-03-14T13:28:27;14.40;65.10
52481;DHT22;38393;52.404;13.532;2023-03-14T13:30:59;14.30;67.70
52481;DHT22;38393;52.404;13.532;2023-03-14T13:33:25;14.10;68.70
52481;DHT22;38393;52.404;13.532;2023-03-14T13:38:22;13.20;76.10
52481;DHT22;38393;52.404;13.532;2023-03-14T13:40:49;13.10;77.00
52481;DHT22;38393;52.404;13.532;2023-03-14T13:48:32;12.80;81.10
52481;DHT22;38393;52.404;13.532;2023-03-14T13:51:04;12.80;82.40
52481;DHT22;38393;52.404;13.532;2023-03-14T13:53:30;13.00;83.00
52481;DHT22;38393;52.404;13.532;2023-03-14T13:55:57;13.30;81.90
52481;DHT22;38393;52.404;13.532;2023-03-14T13:58:28;13.40;80.70
52481;DHT22;38393;52.404;13.532;2023-03-14T14:01:01;13.60;81.20
52481;DHT22;38393;52.404;13.532;2023-03-14T14:03:27;13.70;80.70
52481;DHT22;38393;52.404;13.532;2023-03-14T14:05:56;14.10;79.20
52481;DHT22;38393;52.404;13.532;2023-03-14T14:08:22;14.40;78.70
52481;DHT22;38393;52.404;13.532;2023-03-14T14:10:48;14.40;76.20
52481;DHT22;38393;52.404;13.532;2023-03-14T14:13:16;14.60;75.90
52481;DHT22;38393;52.404;13.532;2023-03-14T14:15:46;14.50;75.40
52481;DHT22;38393;52.404;13.532;2023-03-14T14:18:17;14.60;75.00
52481;DHT22;38393;52.404;13.532;2023-03-14T14:20:46;14.80;73.30
52481;DHT22;38393;52.404;13.532;2023-03-14T14:23:15;14.70;71.90
52481;DHT22;38393;52.404;13.532;2023-03-14T14:25:43;14.60;69.60
52481;DHT22;38393;52.404;13.532;2023-03-14T14:28:27;14.70;69.20
52481;DHT22;38393;52.404;13.532;2023-03-14T14:33:53;14.80;68.30
52481;DHT22;38393;52.404;13.532;2023-03-14T14:36:38;14.50;67.70
52481;DHT22;38393;52.404;13.532;2023-03-14T14:39:19;14.00;69.90
52481;DHT22;38393;52.404;13.532;2023-03-14T14:41:48;14.20;70.60
52481;DHT22;38393;52.404;13.532;2023-03-14T14:44:18;14.40;69.90
52481;DHT22;38393;52.404;13.532;2023-03-14T14:46:44;14.40;68.80
52481;DHT22;38393;52.404;13.532;2023-03-14T14:49:13;14.60;69.20
52481;DHT22;38393;52.404;13.532;2023-03-14T14:51:42;14.80;69.10
52481;DHT22;38393;52.404;13.532;2023-03-14T14:54:17;14.70;68.90
52481;DHT22;38393;52.404;13.532;2023-03-14T14:56:51;14.60;69.60
52481;DHT22;38393;52.404;13.532;2023-03-14T14:59:26;14.50;70.60
52481;DHT22;38393;52.404;13.532;2023-03-14T15:01:58;14.20;71.40
52481;DHT22;38393;52.404;13.532;2023-03-14T15:04:25;14.00;72.20
52481;DHT22;38393;52.404;13.532;2023-03-14T15:06:50;14.00;72.10
52481;DHT22;38393;52.404;13.532;2023-03-14T15:09:18;13.90;72.50
52481;DHT22;38393;52.404;13.532;2023-03-14T15:11:44;13.90;72.70
52481;DHT22;38393;52.404;13.532;2023-03-14T15:14:09;13.90;72.10
52481;DHT22;38393;52.404;13.532;2023-03-14T15:16:35;13.90;72.60
52481;DHT22;38393;52.404;13.532;2023-03-14T15:19:03;13.70;72.80
52481;DHT22;38393;52.404;13.532;2023-03-14T15:21:31;13.60;74.30
52481;DHT22;38393;52.404;13.532;2023-03-14T15:23:57;13.40;74.90
52481;DHT22;38393;52.404;13.532;2023-03-14T15:26:25;13.40;75.60
52481;DHT22;38393;52.404;13.532;2023-03-14T15:28:51;13.20;79.40
52481;DHT22;38393;52.404;13.532;2023-03-14T15:31:17;13.00;82.20
52481;DHT22;38393;52.404;13.532;2023-03-14T15:33:44;12.90;83.10
52481;DHT22;38393;52.404;13.532;2023-03-14T15:38:43;11.00;77.50
52481;DHT22;38393;52.404;13.532;2023-03-14T15:41:09;9.20;90.20
52481;DHT22;38393;52.404;13.532;2023-03-14T15:43:35;8.20;91.80
52481;DHT22;38393;52.404;13.532;2023-03-14T15:46:00;7.50;93.10
52481;DHT22;38393;52.404;13.532;2023-03-14T15:48:26;7.10;94.30
52481;DHT22;38393;52.404;13.532;2023-03-14T15:50:51;6.60;94.60
52481;DHT22;38393;52.404;13.532;2023-03-14T15:53:17;6.20;95.20
52481;DHT22;38393;52.404;13.532;2023-03-14T15:55:42;6.10;95.40
52481;DHT22;38393;52.404;13.532;2023-03-14T15:58:16;6.00;95.60
52481;DHT22;38393;52.404;13.532;2023-03-14T16:00:42;5.90;95.80
52481;DHT22;38393;52.404;13.532;2023-03-14T16:03:07;5.80;96.20
52481;DHT22;38393;52.404;13.532;2023-03-14T16:05:33;5.70;96.00
52481;DHT22;38393;52.404;13.532;2023-03-14T16:07:58;5.70;96.90
52481;DHT22;38393;52.404;13.532;2023-03-14T16:10:23;5.70;97.00
52481;DHT22;38393;52.404;13.532;2023-03-14T16:12:49;5.60;96.60
52481;DHT22;38393;52.404;13.532;2023-03-14T16:15:14;5.30;95.10
52481;DHT22;38393;52.404;13.532;2023-03-14T16:17:40;4.90;95.10
52481;DHT22;38393;52.404;13.532;2023-03-14T16:20:08;4.40;94.40
52481;DHT22;38393;52.404;13.532;2023-03-14T16:22:34;3.90;95.10
52481;DHT22;38393;52.404;13.532;2023-03-14T16:25:00;3.60;95.70
52481;DHT22;38393;52.404;13.532;2023-03-14T16:27:26;3.40;95.70
52481;DHT22;38393;52.404;13.532;2023-03-14T16:29:51;3.00;96.20